Time;durP1;ratioP1;P1;durP2;ratioP2;P2;SDS_P1;SDS_P2;PMS_P1;PMS_P2;Temp;Humidity;BMP_temperature;BMP_pressure;BME280_temperature;BME280_humidity;BME280_pressure;Samples;Min_cycle;Max_cycle;Signal;HPM_P1;HPM_P2
2023/02/01 00:00:21;;;;;;;1.75;0.90;;;25.80;61.70;;;;;;4141385;28;20041;-54
2023/02/01 00:02:44;;;;;;;2.28;0.93;;;25.80;61.80;;;;;;4138493;28;20034;-50
2023/02/01 00:05:08;;;;;;;1.75;0.95;;;25.80;61.80;;;;;;4132271;28;20054;-51
2023/02/01 00:07:31;;;;;;;1.73;0.80;;;25.80;61.70;;;;;;4140215;28;20482;-54
2023/02/01 00:09:53;;;;;;;2.10;0.90;;;25.80;61.80;;;;;;4137024;28;20548;-48
2023/02/01 00:12:15;;;;;;;1.20;0.95;;;25.80;61.90;;;;;;4140128;28;20038;-55
2023/02/01 00:14:39;;;;;;;1.98;0.93;;;25.80;61.90;;;;;;4134320;28;20100;-54
2023/02/01 00:17:01;;;;;;;2.25;0.82;;;25.80;62.00;;;;;;4142727;28;20104;-49
2023/02/01 00:19:24;;;;;;;3.42;1.42;;;25.90;61.90;;;;;;4138910;28;20387;-51
2023/02/01 00:21:46;;;;;;;1.25;0.90;;;25.90;61.90;;;;;;4137957;28;20061;-53
2023/02/01 00:24:11;;;;;;;1.75;1.08;;;25.90;61.90;;;;;;4139994;28;20344;-54
2023/02/01 00:26:39;;;;;;;2.95;1.65;;;26.00;61.80;;;;;;4141724;28;20041;-52
2023/02/01 00:29:04;;;;;;;2.17;0.90;;;26.00;61.70;;;;;;4139597;28;20041;-55
2023/02/01 00:31:27;;;;;;;2.30;0.90;;;26.00;61.70;;;;;;4137360;28;20072;-49
2023/02/01 00:33:50;;;;;;;1.77;0.90;;;26.00;61.70;;;;;;4137295;28;20068;-56
2023/02/01 00:36:12;;;;;;;2.55;0.98;;;26.10;61.70;;;;;;4140768;28;20053;-49
2023/02/01 00:38:38;;;;;;;1.90;0.90;;;26.10;61.70;;;;;;4140558;28;20072;-54
2023/02/01 00:41:05;;;;;;;1.45;0.88;;;26.10;61.70;;;;;;4139208;28;20046;-52
2023/02/01 00:43:28;;;;;;;2.15;0.70;;;26.10;61.60;;;;;;4134277;28;20514;-55
2023/02/01 00:45:50;;;;;;;1.33;0.90;;;26.10;61.50;;;;;;4139603;28;20046;-54
2023/02/01 00:48:12;;;;;;;2.05;0.98;;;26.20;61.60;;;;;;4140138;28;20041;-50
2023/02/01 00:50:35;;;;;;;2.42;0.98;;;26.20;61.60;;;;;;4141767;28;20041;-49
2023/02/01 00:52:57;;;;;;;4.75;1.10;;;26.20;61.70;;;;;;4139817;28;20038;-55
2023/02/01 00:55:20;;;;;;;2.38;1.00;;;26.20;61.60;;;;;;4141333;28;20564;-54
2023/02/01 00:57:42;;;;;;;1.95;1.10;;;26.30;61.70;;;;;;4136136;28;20065;-50
2023/02/01 01:00:05;;;;;;;2.83;0.98;;;26.30;61.50;;;;;;4133429;28;20046;-51
2023/02/01 01:02:28;;;;;;;1.77;0.95;;;26.30;61.50;;;;;;4137368;28;20076;-51
2023/02/01 01:04:50;;;;;;;4.37;1.13;;;26.30;61.50;;;;;;4136059;28;20061;-55
2023/02/01 01:07:13;;;;;;;2.03;0.93;;;26.30;61.40;;;;;;4137064;28;20042;-52
2023/02/01 01:09:35;;;;;;;1.90;0.98;;;26.40;61.50;;;;;;4134294;28;20038;-49
2023/02/01 01:12:02;;;;;;;1.70;1.10;;;26.40;61.40;;;;;;4139757;28;20061;-52
2023/02/01 01:14:24;;;;;;;2.08;0.75;;;26.40;61.50;;;;;;4135286;28;20044;-51
2023/02/01 01:16:47;;;;;;;1.58;0.82;;;26.40;61.30;;;;;;4137320;28;20470;-54
2023/02/01 01:19:09;;;;;;;3.08;1.20;;;26.40;61.30;;;;;;4135178;28;20046;-51
2023/02/01 01:21:31;;;;;;;2.42;1.20;;;26.50;61.30;;;;;;4139844;28;20803;-52
2023/02/01 01:23:54;;;;;;;2.33;1.02;;;26.50;61.30;;;;;;4137611;28;20069;-50
2023/02/01 01:26:20;;;;;;;1.20;0.80;;;26.50;61.40;;;;;;4139757;28;20397;-51
2023/02/01 01:28:43;;;;;;;3.08;1.42;;;26.50;61.30;;;;;;4133663;28;20302;-55
2023/02/01 01:31:09;;;;;;;1.90;0.90;;;26.50;61.20;;;;;;4139978;28;20454;-55
2023/02/01 01:33:32;;;;;;;1.98;0.93;;;26.50;61.10;;;;;;4138790;28;20054;-54
2023/02/01 01:35:54;;;;;;;1.60;0.75;;;26.60;61.30;;;;;;4134604;28;20054;-52
2023/02/01 01:38:16;;;;;;;1.92;0.90;;;26.60;61.10;;;;;;4138371;28;20050;-51
2023/02/01 01:40:39;;;;;;;1.15;0.70;;;26.60;61.10;;;;;;4137353;28;20505;-52
2023/02/01 01:43:01;;;;;;;2.05;0.88;;;26.60;61.80;;;;;;4133092;28;20067;-54
2023/02/01 01:45:33;;;;;;;1.35;1.02;;;26.60;61.10;;;;;;4137260;28;20045;-55
2023/02/01 01:48:21;;;;;;;2.13;1.05;;;26.70;61.20;;;;;;4136883;28;20081;-53
2023/02/01 01:50:57;;;;;;;3.13;1.10;;;26.70;61.10;;;;;;4132225;28;20487;-53
2023/02/01 01:53:27;;;;;;;3.42;1.05;;;26.70;60.90;;;;;;4132627;28;20556;-51
2023/02/01 01:55:51;;;;;;;5.10;1.42;;;26.70;61.00;;;;;;4136664;28;20520;-53
2023/02/01 01:58:23;;;;;;;2.05;0.98;;;26.70;60.70;;;;;;4138007;28;20038;-51
2023/02/01 02:00:47;;;;;;;1.88;1.17;;;26.80;60.90;;;;;;4134779;28;20528;-55
2023/02/01 02:03:20;;;;;;;2.20;1.02;;;26.70;60.80;;;;;;4135665;28;20037;-49
2023/02/01 02:05:43;;;;;;;3.23;1.63;;;26.80;60.90;;;;;;4134394;28;20042;-55
2023/02/01 02:08:06;;;;;;;3.10;1.40;;;26.80;60.90;;;;;;4130662;28;20269;-54
2023/02/01 02:13:10;;;;;;;4.70;1.35;;;26.90;61.00;;;;;;4136425;28;20038;-55
2023/02/01 02:15:33;;;;;;;4.78;1.00;;;26.90;60.90;;;;;;4139801;28;20038;-50
2023/02/01 02:18:03;;;;;;;3.08;1.10;;;26.90;60.80;;;;;;4126320;28;20124;-52
2023/02/01 02:20:34;;;;;;;2.95;0.90;;;26.90;60.80;;;;;;4127861;28;20045;-55
2023/02/01 02:23:19;;;;;;;2.63;1.10;;;26.90;61.10;;;;;;4137597;28;20421;-50
2023/02/01 02:26:12;;;;;;;1.77;0.95;;;27.00;61.00;;;;;;4150638;28;20556;-54
2023/02/01 02:28:59;;;;;;;2.75;1.27;;;27.00;60.90;;;;;;4132665;28;20054;-55
2023/02/01 02:31:39;;;;;;;2.13;1.20;;;27.00;61.00;;;;;;4134186;28;20042;-50
2023/02/01 02:34:19;;;;;;;2.75;0.95;;;27.00;60.90;;;;;;4130893;28;20046;-53
2023/02/01 02:36:42;;;;;;;3.10;1.10;;;27.10;60.90;;;;;;4140479;28;20467;-54
2023/02/01 02:39:18;;;;;;;4.43;1.10;;;27.10;60.80;;;;;;4142538;28;20121;-54
2023/02/01 02:48:05;;;;;;;2.85;1.15;;;27.10;60.70;;;;;;4136282;28;20038;-52
2023/02/01 03:05:03;;;;;;;2.90;1.20;;;27.30;60.70;;;;;;4140565;28;20535;-51
2023/02/01 03:07:44;;;;;;;3.47;1.10;;;27.30;60.70;;;;;;4141630;28;20104;-54
2023/02/01 03:10:13;;;;;;;1.92;1.08;;;27.30;60.80;;;;;;4141506;28;20510;-50
2023/02/01 03:12:58;;;;;;;2.90;1.15;;;27.30;60.70;;;;;;4141362;28;20049;-51
2023/02/01 03:15:48;;;;;;;2.38;1.35;;;27.40;60.90;;;;;;4134598;28;20513;-54
2023/02/01 03:18:18;;;;;;;2.42;1.10;;;27.40;60.80;;;;;;4141249;28;20332;-51
2023/02/01 03:20:45;;;;;;;2.40;1.10;;;27.40;60.80;;;;;;4134888;28;20609;-50
2023/02/01 03:23:08;;;;;;;1.55;1.00;;;27.40;60.70;;;;;;4133170;28;20045;-51
2023/02/01 03:25:33;;;;;;;2.70;1.20;;;27.40;60.70;;;;;;4133161;28;20046;-51
2023/02/01 03:28:01;;;;;;;3.22;1.20;;;27.40;60.70;;;;;;4140506;28;20314;-52
2023/02/01 03:30:45;;;;;;;2.45;0.90;;;27.50;60.60;;;;;;4140876;28;20049;-50
2023/02/01 03:33:24;;;;;;;2.53;0.98;;;27.50;60.70;;;;;;4136967;28;20040;-49
2023/02/01 03:36:01;;;;;;;2.65;1.30;;;27.50;60.70;;;;;;4140635;28;20061;-54
2023/02/01 03:39:01;;;;;;;3.08;1.15;;;27.50;60.60;;;;;;4137338;28;20034;-56
2023/02/01 03:41:26;;;;;;;3.00;1.30;;;27.50;60.50;;;;;;4125059;28;20053;-49
2023/02/01 03:43:54;;;;;;;2.40;1.05;;;27.60;60.30;;;;;;4131420;28;20054;-52
2023/02/01 03:46:46;;;;;;;2.45;1.17;;;27.60;60.40;;;;;;4140516;28;20101;-54
2023/02/01 03:52:51;;;;;;;1.95;1.20;;;27.60;60.20;;;;;;4138139;28;20042;-51
2023/02/01 03:55:17;;;;;;;4.53;1.33;;;27.60;60.20;;;;;;4139306;28;20125;-49
2023/02/01 03:57:49;;;;;;;2.58;1.10;;;27.60;59.60;;;;;;4140910;28;20342;-51
2023/02/01 04:00:22;;;;;;;2.08;1.02;;;27.60;59.80;;;;;;4132927;28;20580;-50
2023/02/01 04:02:44;;;;;;;2.97;1.30;;;27.60;59.90;;;;;;4130452;28;20425;-50
2023/02/01 04:05:07;;;;;;;2.88;1.10;;;27.60;60.00;;;;;;4136814;28;20237;-48
2023/02/01 04:07:30;;;;;;;2.90;1.10;;;27.60;60.10;;;;;;4132276;28;20033;-48
2023/02/01 04:09:52;;;;;;;2.08;1.13;;;27.60;60.40;;;;;;4135600;28;20473;-49
2023/02/01 04:12:15;;;;;;;3.15;1.38;;;27.60;60.30;;;;;;4130216;28;20097;-49
2023/02/01 04:14:38;;;;;;;6.35;1.65;;;27.70;60.40;;;;;;4126413;28;20038;-47
2023/02/01 04:17:00;;;;;;;2.65;1.10;;;27.70;60.40;;;;;;4136537;28;20402;-50
2023/02/01 04:19:23;;;;;;;2.72;1.38;;;27.70;60.20;;;;;;4137251;28;20065;-54
2023/02/01 04:21:45;;;;;;;3.72;1.50;;;27.70;60.50;;;;;;4129323;28;20037;-52
2023/02/01 04:24:08;;;;;;;4.13;1.33;;;27.80;60.60;;;;;;4126522;28;20500;-56
2023/02/01 04:26:31;;;;;;;2.40;1.20;;;27.80;60.50;;;;;;4133934;28;20034;-57
2023/02/01 04:28:54;;;;;;;2.65;1.60;;;27.80;60.50;;;;;;4132585;28;20516;-55
2023/02/01 04:31:17;;;;;;;4.70;1.65;;;27.90;60.50;;;;;;4135896;28;20421;-55
2023/02/01 04:33:39;;;;;;;;;;;27.90;60.10;;;;;;4136005;28;20045;-55
2023/02/01 04:36:02;;;;;;;2.63;1.27;;;27.90;60.20;;;;;;4139201;28;20368;-52
2023/02/01 04:38:24;;;;;;;4.28;1.63;;;28.00;60.00;;;;;;4134757;28;20516;-49
2023/02/01 04:40:48;;;;;;;4.22;1.52;;;28.00;59.80;;;;;;4143088;28;20048;-47
2023/02/01 04:43:11;;;;;;;3.90;1.90;;;28.00;59.70;;;;;;4129591;28;20188;-50
2023/02/01 04:45:34;;;;;;;4.40;1.83;;;28.10;59.80;;;;;;4133445;28;20077;-55
2023/02/01 04:47:56;;;;;;;3.58;1.33;;;28.10;59.80;;;;;;4137287;28;20410;-49
2023/02/01 04:50:20;;;;;;;5.15;1.60;;;28.20;59.90;;;;;;4135095;28;20445;-48
2023/02/01 04:52:45;;;;;;;2.95;1.20;;;28.20;59.90;;;;;;4129931;28;20052;-49
2023/02/01 04:55:07;;;;;;;2.78;1.40;;;28.20;59.80;;;;;;4130451;28;20053;-49
2023/02/01 04:57:30;;;;;;;4.88;1.52;;;28.20;59.60;;;;;;4135328;28;20409;-56
2023/02/01 04:59:53;;;;;;;3.38;1.38;;;28.30;59.70;;;;;;4133074;28;20488;-51
2023/02/01 05:02:15;;;;;;;5.78;1.77;;;28.40;59.80;;;;;;4127450;28;20475;-48
2023/02/01 05:04:38;;;;;;;2.13;1.40;;;28.30;59.70;;;;;;4131167;28;20057;-49
2023/02/01 05:07:00;;;;;;;3.75;1.75;;;28.40;59.50;;;;;;4134495;28;20460;-49
2023/02/01 05:09:23;;;;;;;3.95;1.67;;;28.40;59.50;;;;;;4136337;28;20368;-50
2023/02/01 05:14:26;;;;;;;3.97;1.42;;;28.50;59.00;;;;;;4130614;28;20042;-52
2023/02/01 05:16:48;;;;;;;2.03;1.30;;;28.50;58.90;;;;;;4135449;28;20080;-51
2023/02/01 05:19:11;;;;;;;3.72;1.60;;;28.60;59.00;;;;;;4136921;28;20050;-55
2023/02/01 05:21:33;;;;;;;4.85;1.80;;;28.70;58.80;;;;;;4131018;28;20038;-51
2023/02/01 05:24:12;;;;;;;3.65;1.95;;;28.70;58.90;;;;;;4133158;28;20045;-53
2023/02/01 05:26:35;;;;;;;3.40;1.50;;;28.70;58.40;;;;;;4124375;28;20473;-49
2023/02/01 05:28:57;;;;;;;3.38;1.38;;;28.80;58.80;;;;;;4131999;28;20041;-51
2023/02/01 05:31:20;;;;;;;4.65;1.50;;;28.80;58.40;;;;;;4133577;28;20168;-51
2023/02/01 05:33:42;;;;;;;2.67;1.48;;;28.80;58.30;;;;;;4125566;28;20093;-51
2023/02/01 05:36:05;;;;;;;2.33;1.40;;;28.90;58.20;;;;;;4134409;28;20046;-51
2023/02/01 05:38:29;;;;;;;3.50;1.60;;;29.00;58.30;;;;;;4132169;28;20041;-52
2023/02/01 05:40:51;;;;;;;4.07;1.58;;;29.00;58.30;;;;;;4132127;28;20034;-50
2023/02/01 05:43:14;;;;;;;2.78;1.33;;;29.10;58.20;;;;;;4128855;28;20124;-47
2023/02/01 05:45:36;;;;;;;2.70;1.25;;;29.10;58.00;;;;;;4135045;28;20060;-49
2023/02/01 05:47:58;;;;;;;2.70;1.35;;;29.10;57.70;;;;;;4129948;28;20034;-52
2023/02/01 05:50:21;;;;;;;4.63;1.40;;;29.20;57.70;;;;;;4126508;28;20038;-51
2023/02/01 05:52:43;;;;;;;4.10;1.50;;;29.30;57.70;;;;;;4137753;28;20034;-55
2023/02/01 05:55:06;;;;;;;4.53;1.50;;;29.30;57.40;;;;;;4134967;28;20441;-50
2023/02/01 05:57:29;;;;;;;3.30;1.55;;;29.30;57.20;;;;;;4130193;28;20163;-49
2023/02/01 05:59:52;;;;;;;2.78;1.40;;;29.30;57.30;;;;;;4136317;28;20393;-53
2023/02/01 06:02:15;;;;;;;2.88;1.40;;;29.40;57.30;;;;;;4126925;28;20515;-49
2023/02/01 06:04:38;;;;;;;2.83;1.65;;;29.50;57.00;;;;;;4130609;28;20042;-50
2023/02/01 06:07:01;;;;;;;3.00;1.73;;;29.50;57.70;;;;;;4140447;28;20030;-49
2023/02/01 06:09:23;;;;;;;2.85;1.23;;;29.50;56.80;;;;;;4145716;28;20046;-51
2023/02/01 06:11:46;;;;;;;4.10;1.98;;;29.50;56.50;;;;;;4139372;28;20046;-52
2023/02/01 06:14:08;;;;;;;4.93;1.55;;;29.60;56.40;;;;;;4129272;28;20049;-51
2023/02/01 06:16:31;;;;;;;3.40;1.40;;;29.60;56.30;;;;;;4134226;28;20485;-49
2023/02/01 06:18:53;;;;;;;3.38;1.90;;;29.60;56.60;;;;;;4139566;28;20038;-51
2023/02/01 06:21:23;;;;;;;3.55;1.42;;;29.70;56.20;;;;;;4132225;28;20034;-52
2023/02/01 06:23:45;;;;;;;3.92;1.65;;;29.70;56.10;;;;;;4134384;28;20776;-50
2023/02/01 06:26:09;;;;;;;4.93;1.90;;;29.70;56.20;;;;;;4133800;28;20038;-49
2023/02/01 06:28:32;;;;;;;3.10;1.70;;;29.70;56.00;;;;;;4128886;28;20037;-51
2023/02/01 06:30:54;;;;;;;;;;;29.70;55.60;;;;;;4136687;28;20449;-47
2023/02/01 06:33:17;;;;;;;5.35;2.13;;;29.70;56.00;;;;;;4136330;28;19921;-50
2023/02/01 06:35:39;;;;;;;4.03;1.95;;;29.80;56.20;;;;;;4134120;28;20050;-50
2023/02/01 06:38:01;;;;;;;6.55;2.03;;;29.80;56.30;;;;;;4130759;28;20042;-52
2023/02/01 06:40:24;;;;;;;3.78;2.47;;;29.70;55.90;;;;;;4139217;28;20481;-53
2023/02/01 06:42:48;;;;;;;4.28;2.20;;;29.70;55.80;;;;;;4135783;28;20344;-52
2023/02/01 06:45:10;;;;;;;3.90;2.10;;;29.80;56.30;;;;;;4132298;28;20532;-53
2023/02/01 06:47:33;;;;;;;3.87;1.90;;;29.70;55.90;;;;;;4137059;28;20048;-50
2023/02/01 06:49:55;;;;;;;4.65;2.45;;;29.70;55.70;;;;;;4141136;28;20045;-47
2023/02/01 06:52:18;;;;;;;4.10;2.30;;;29.70;56.10;;;;;;4141172;28;20042;-50
2023/02/01 06:54:40;;;;;;;5.53;2.88;;;29.70;56.20;;;;;;4146536;28;20425;-51
2023/02/01 06:57:02;;;;;;;6.00;3.90;;;29.70;55.60;;;;;;4137027;28;20041;-54
2023/02/01 06:59:25;;;;;;;5.93;5.15;;;29.70;56.20;;;;;;4141152;28;20046;-58
2023/02/01 07:01:47;;;;;;;7.40;5.28;;;29.70;56.20;;;;;;4138630;28;20513;-57
2023/02/01 07:04:12;;;;;;;6.15;5.18;;;29.70;56.30;;;;;;4138843;28;20044;-56
2023/02/01 07:06:34;;;;;;;5.82;4.40;;;29.70;56.20;;;;;;4138122;28;20108;-57
2023/02/01 07:08:58;;;;;;;5.50;3.97;;;29.70;56.10;;;;;;4138184;28;20065;-58
2023/02/01 07:11:20;;;;;;;11.45;5.95;;;29.80;56.00;;;;;;4137362;28;20069;-59
2023/02/01 07:13:43;;;;;;;8.30;5.07;;;29.90;56.50;;;;;;4135662;28;20108;-58
2023/02/01 07:16:10;;;;;;;8.13;5.27;;;29.90;56.50;;;;;;4138567;28;20074;-51
2023/02/01 07:18:33;;;;;;;8.02;6.45;;;29.80;56.40;;;;;;4138791;28;20049;-51
2023/02/01 07:20:56;;;;;;;9.15;5.32;;;29.80;56.50;;;;;;4140042;28;20049;-58
2023/02/01 07:23:19;;;;;;;7.15;5.45;;;29.80;56.60;;;;;;4136032;28;20516;-58
2023/02/01 07:25:41;;;;;;;11.25;5.65;;;29.70;56.50;;;;;;4139174;28;20188;-57
2023/02/01 07:28:03;;;;;;;9.70;6.15;;;29.70;56.70;;;;;;4140595;28;20409;-58
2023/02/01 07:30:26;;;;;;;9.98;5.50;;;29.70;56.80;;;;;;4141503;28;20041;-57
2023/02/01 07:32:48;;;;;;;7.38;4.65;;;29.70;56.70;;;;;;4134997;28;20042;-57
2023/02/01 07:35:10;;;;;;;9.50;6.25;;;29.70;56.70;;;;;;4139018;28;20041;-57
2023/02/01 07:37:33;;;;;;;7.75;5.18;;;29.60;56.90;;;;;;4139849;28;20137;-57
2023/02/01 07:39:55;;;;;;;8.52;4.95;;;29.60;56.80;;;;;;4139965;28;20046;-57
2023/02/01 07:42:18;;;;;;;6.80;5.03;;;29.60;56.60;;;;;;4137461;28;20434;-58
2023/02/01 07:44:41;;;;;;;6.63;5.28;;;29.50;56.50;;;;;;4135265;28;20107;-58
2023/02/01 07:47:03;;;;;;;7.15;4.18;;;29.60;57.30;;;;;;4137851;28;20115;-58
2023/02/01 07:49:25;;;;;;;5.57;4.27;;;29.50;57.00;;;;;;4137913;28;20037;-58
2023/02/01 07:51:48;;;;;;;6.20;4.00;;;29.50;56.30;;;;;;4141096;28;20375;-56
2023/02/01 07:54:10;;;;;;;6.07;3.63;;;29.50;56.10;;;;;;4141722;28;20056;-56
2023/02/01 07:56:33;;;;;;;5.85;4.65;;;29.50;56.20;;;;;;4135676;28;20128;-55
2023/02/01 07:58:55;;;;;;;6.40;5.15;;;29.40;56.60;;;;;;4141480;28;20084;-57
2023/02/01 08:01:21;;;;;;;7.95;5.43;;;29.40;56.50;;;;;;4140396;28;20034;-50
2023/02/01 08:03:43;;;;;;;7.55;5.53;;;29.40;56.70;;;;;;4135859;28;20520;-57
2023/02/01 08:06:06;;;;;;;6.63;4.82;;;29.40;56.40;;;;;;4138044;28;20044;-58
2023/02/01 08:08:28;;;;;;;5.38;4.13;;;29.40;56.50;;;;;;4138673;28;20100;-57
2023/02/01 08:10:51;;;;;;;5.97;4.03;;;29.30;56.10;;;;;;4140002;28;20052;-56
2023/02/01 08:13:13;;;;;;;5.53;4.38;;;29.30;56.10;;;;;;4138501;28;20073;-54
2023/02/01 08:15:36;;;;;;;5.55;3.67;;;29.30;56.30;;;;;;4141881;28;20172;-55
2023/02/01 08:17:59;;;;;;;6.25;4.75;;;29.30;56.30;;;;;;4128483;28;20085;-58
2023/02/01 08:20:23;;;;;;;7.18;6.10;;;29.30;56.60;;;;;;4128158;28;20099;-59
2023/02/01 08:22:45;;;;;;;;;;;29.30;56.70;;;;;;4140554;28;20469;-57
2023/02/01 08:25:07;;;;;;;8.95;6.57;;;29.30;56.60;;;;;;4142334;28;20364;-58
2023/02/01 08:27:32;;;;;;;9.05;6.20;;;29.30;56.60;;;;;;4140408;28;20049;-56
2023/02/01 08:29:55;;;;;;;9.43;6.38;;;29.30;56.80;;;;;;4139147;28;20465;-58
2023/02/01 08:32:17;;;;;;;10.52;6.47;;;29.30;56.80;;;;;;4140594;28;20038;-58
2023/02/01 08:34:39;;;;;;;8.82;6.30;;;29.20;56.60;;;;;;4135925;28;20049;-58
2023/02/01 08:37:02;;;;;;;7.22;5.60;;;29.20;56.90;;;;;;4141107;28;20085;-57
2023/02/01 08:39:25;;;;;;;7.35;6.35;;;29.20;56.90;;;;;;4142271;28;20073;-58
2023/02/01 08:42:50;;;;;;;9.68;6.15;;;29.20;56.80;;;;;;4139025;28;20525;-58
2023/02/01 08:44:29;;;;;;;9.60;7.47;;;29.10;56.70;;;;;;4134091;28;20053;-57
2023/02/01 08:46:52;;;;;;;7.50;6.60;;;29.10;57.00;;;;;;4138561;28;20040;-58
2023/02/01 08:49:14;;;;;;;8.88;6.82;;;29.20;57.00;;;;;;4140445;28;20560;-59
2023/02/01 08:51:37;;;;;;;8.70;6.63;;;29.10;57.20;;;;;;4135760;28;20104;-57
2023/02/01 08:54:00;;;;;;;9.27;6.55;;;29.10;57.30;;;;;;4139649;28;20053;-59
2023/02/01 08:56:23;;;;;;;8.07;6.07;;;29.10;57.20;;;;;;4134044;28;20098;-59
2023/02/01 08:58:45;;;;;;;7.43;5.00;;;29.10;57.10;;;;;;4139796;28;20042;-57
2023/02/01 09:01:12;;;;;;;6.72;4.80;;;29.00;56.90;;;;;;4134508;28;20201;-56
2023/02/01 09:03:34;;;;;;;5.65;4.63;;;29.00;57.00;;;;;;4135876;28;20042;-58
2023/02/01 09:06:08;;;;;;;6.85;4.22;;;29.00;57.30;;;;;;4132189;28;20112;-58
2023/02/01 09:08:31;;;;;;;5.38;3.47;;;29.00;57.10;;;;;;4134808;28;20038;-57
2023/02/01 09:10:58;;;;;;;3.95;2.85;;;29.00;57.20;;;;;;4135620;28;20035;-58
2023/02/01 09:13:22;;;;;;;4.18;2.53;;;29.00;57.10;;;;;;4135368;28;20048;-58
2023/02/01 09:15:44;;;;;;;4.43;2.83;;;29.00;56.90;;;;;;4128020;28;20049;-58
2023/02/01 09:18:06;;;;;;;4.57;2.13;;;28.90;57.00;;;;;;4134485;28;20335;-57
2023/02/01 09:20:29;;;;;;;4.18;2.10;;;29.00;56.70;;;;;;4130449;28;20274;-55
2023/02/01 09:22:52;;;;;;;3.42;1.80;;;28.90;56.80;;;;;;4134700;28;20066;-57
2023/02/01 09:25:14;;;;;;;;;;;28.90;56.90;;;;;;4141491;28;20054;-55
2023/02/01 09:27:37;;;;;;;3.97;2.90;;;28.90;56.80;;;;;;4140406;28;19917;-58
2023/02/01 09:29:59;;;;;;;4.53;2.63;;;28.90;57.40;;;;;;4132169;28;20069;-58
2023/02/01 09:32:23;;;;;;;4.40;2.13;;;28.90;57.60;;;;;;4137589;28;20104;-58
2023/02/01 09:34:45;;;;;;;5.40;2.67;;;28.80;57.30;;;;;;4163243;23;20338;-48
2023/02/01 09:37:07;;;;;;;3.72;2.25;;;28.80;57.60;;;;;;4155215;28;20046;-44
2023/02/01 09:39:30;;;;;;;3.42;2.05;;;28.80;57.60;;;;;;4154312;28;20041;-44
2023/02/01 09:41:57;;;;;;;4.22;2.17;;;28.80;57.80;;;;;;4153309;28;20079;-44
2023/02/01 09:44:56;;;;;;;4.07;1.92;;;28.80;57.60;;;;;;4151906;28;20049;-46
2023/02/01 09:47:21;;;;;;;3.22;2.00;;;28.80;57.80;;;;;;4148378;28;20095;-46
2023/02/01 09:49:52;;;;;;;3.50;1.95;;;28.80;57.80;;;;;;4146238;28;20042;-46
2023/02/01 09:52:16;;;;;;;3.92;1.80;;;28.80;58.00;;;;;;4148618;28;20561;-44
2023/02/01 09:55:00;;;;;;;3.50;1.90;;;28.70;57.90;;;;;;4147888;28;20120;-44
2023/02/01 09:57:26;;;;;;;;;;;28.70;58.30;;;;;;4145056;28;20033;-46
2023/02/01 09:59:57;;;;;;;2.88;1.67;;;28.70;58.20;;;;;;4144029;28;19913;-45
2023/02/01 10:02:26;;;;;;;3.70;1.80;;;28.70;58.10;;;;;;4152732;28;20033;-45
2023/02/01 10:04:49;;;;;;;2.55;1.50;;;28.70;58.30;;;;;;4151702;28;20092;-44
2023/02/01 10:07:37;;;;;;;2.55;1.77;;;28.70;58.10;;;;;;4152008;28;20409;-45
2023/02/01 10:10:22;;;;;;;3.78;1.80;;;28.70;58.40;;;;;;4149916;28;20219;-47
2023/02/01 10:13:21;;;;;;;2.90;1.55;;;28.70;58.60;;;;;;4144936;28;20556;-44
2023/02/01 10:16:05;;;;;;;3.25;1.50;;;28.70;58.60;;;;;;4147860;28;20041;-44
2023/02/01 10:18:44;;;;;;;3.25;1.52;;;28.70;58.70;;;;;;4145297;28;20431;-46
2023/02/01 10:21:43;;;;;;;3.47;1.30;;;28.60;58.70;;;;;;4152872;28;20064;-43
2023/02/01 10:24:12;;;;;;;3.42;1.50;;;28.60;58.70;;;;;;4153609;28;20447;-43
2023/02/01 10:26:41;;;;;;;2.60;1.55;;;28.60;58.80;;;;;;4148062;28;20048;-44
2023/02/01 10:29:13;;;;;;;3.03;1.42;;;28.60;58.90;;;;;;4155467;28;20050;-44
2023/02/01 10:31:38;;;;;;;2.85;1.38;;;28.60;58.90;;;;;;4153283;28;20041;-44
2023/02/01 10:34:10;;;;;;;3.33;1.40;;;28.60;59.00;;;;;;4154104;28;20038;-46
2023/02/01 10:36:38;;;;;;;3.90;1.55;;;28.60;59.00;;;;;;4152877;28;20892;-45
2023/02/01 10:39:00;;;;;;;3.60;1.60;;;28.60;59.20;;;;;;4152957;28;20083;-44
2023/02/01 10:41:26;;;;;;;2.88;1.38;;;28.60;59.20;;;;;;4147688;28;20058;-44
2023/02/01 10:43:57;;;;;;;3.33;1.33;;;28.60;59.20;;;;;;4154439;28;20049;-49
2023/02/01 10:46:20;;;;;;;2.25;1.50;;;28.60;59.30;;;;;;4153431;28;20069;-43
2023/02/01 10:48:42;;;;;;;2.10;1.33;;;28.60;59.30;;;;;;4153311;28;20111;-42
2023/02/01 10:51:16;;;;;;;4.50;1.93;;;28.50;59.30;;;;;;4146688;28;20038;-43
2023/02/01 10:53:42;;;;;;;2.05;1.25;;;28.50;59.40;;;;;;4156950;28;20528;-44
2023/02/01 10:56:14;;;;;;;3.33;1.33;;;28.50;59.30;;;;;;4158204;28;20037;-45
2023/02/01 10:58:44;;;;;;;3.85;1.30;;;28.50;59.40;;;;;;4154644;28;20034;-44
2023/02/01 11:01:15;;;;;;;2.90;1.40;;;28.50;59.50;;;;;;4152231;28;20069;-45
2023/02/01 11:03:41;;;;;;;2.72;1.40;;;28.50;59.60;;;;;;4155627;28;20120;-45
2023/02/01 11:06:31;;;;;;;2.83;1.30;;;28.50;59.60;;;;;;4154463;28;20042;-45
2023/02/01 11:08:57;;;;;;;2.60;1.30;;;28.50;59.60;;;;;;4152852;28;20131;-46
2023/02/01 11:11:20;;;;;;;3.22;1.48;;;28.50;59.70;;;;;;4153731;28;20605;-44
2023/02/01 11:13:42;;;;;;;2.63;1.40;;;28.50;59.80;;;;;;4159593;28;20033;-48
2023/02/01 11:16:06;;;;;;;3.78;1.40;;;28.40;59.70;;;;;;4158957;28;20037;-47
2023/02/01 11:18:31;;;;;;;3.00;1.50;;;28.50;59.80;;;;;;4150672;28;20440;-46
2023/02/01 11:20:55;;;;;;;1.98;1.10;;;28.40;59.70;;;;;;4158354;28;20049;-45
2023/02/01 11:23:20;;;;;;;2.20;1.40;;;28.40;59.80;;;;;;4148463;28;20037;-45
2023/02/01 11:26:09;;;;;;;3.60;1.23;;;28.40;59.90;;;;;;4158790;28;20414;-47
2023/02/01 11:28:34;;;;;;;2.53;1.50;;;28.40;60.00;;;;;;4150221;28;20382;-45
2023/02/01 11:30:59;;;;;;;4.60;1.50;;;28.40;60.10;;;;;;4157508;28;20037;-47
2023/02/01 11:33:29;;;;;;;3.38;1.25;;;28.40;60.10;;;;;;4158465;28;20033;-47
2023/02/01 11:35:52;;;;;;;2.70;1.33;;;28.40;60.10;;;;;;4156706;28;20413;-51
2023/02/01 11:38:30;;;;;;;4.20;1.67;;;28.40;60.10;;;;;;4159353;28;20045;-48
2023/02/01 11:40:53;;;;;;;2.85;1.63;;;28.40;60.10;;;;;;4159305;28;20037;-43
2023/02/01 11:43:29;;;;;;;2.85;1.52;;;28.40;60.10;;;;;;4158400;28;20045;-48
2023/02/01 11:46:24;;;;;;;3.60;1.55;;;28.40;60.20;;;;;;4157034;28;20426;-42
2023/02/01 11:48:46;;;;;;;3.25;1.55;;;28.40;60.20;;;;;;4157666;28;20472;-47
2023/02/01 11:51:23;;;;;;;2.55;1.48;;;28.30;60.20;;;;;;4157574;28;20040;-48
2023/02/01 11:54:19;;;;;;;2.47;1.38;;;28.30;60.30;;;;;;4158224;28;20064;-44
2023/02/01 11:56:50;;;;;;;3.40;1.50;;;28.40;60.40;;;;;;4154783;28;20042;-44
2023/02/01 11:59:48;;;;;;;4.47;1.80;;;28.30;60.40;;;;;;4157066;28;20125;-44
2023/02/01 12:02:30;;;;;;;2.92;1.60;;;28.30;60.30;;;;;;4155702;28;20046;-44
2023/02/01 12:05:20;;;;;;;4.57;1.98;;;28.30;60.40;;;;;;4155008;28;20046;-43
2023/02/01 12:07:57;;;;;;;3.47;1.55;;;28.30;60.50;;;;;;4156721;28;20045;-46
2023/02/01 12:10:38;;;;;;;2.95;1.30;;;28.30;60.50;;;;;;4156289;28;20902;-43
2023/02/01 12:13:24;;;;;;;2.10;1.33;;;28.30;60.60;;;;;;4157124;28;20416;-44
2023/02/01 12:16:14;;;;;;;3.25;1.20;;;28.30;60.70;;;;;;4153283;28;20132;-44
2023/02/01 12:18:53;;;;;;;2.90;1.58;;;28.30;60.70;;;;;;4151342;28;20041;-44
2023/02/01 12:21:34;;;;;;;4.38;1.48;;;28.20;60.60;;;;;;4156896;28;20127;-46
2023/02/01 12:24:21;;;;;;;3.38;1.42;;;28.20;60.70;;;;;;4157043;28;20415;-44
2023/02/01 12:27:17;;;;;;;2.95;1.30;;;28.20;60.70;;;;;;4150277;28;20037;-45
2023/02/01 12:30:16;;;;;;;3.65;1.30;;;28.20;60.70;;;;;;4153284;28;20128;-45
2023/02/01 12:33:09;;;;;;;2.53;1.30;;;28.20;60.80;;;;;;4154932;28;20401;-44
2023/02/01 12:35:59;;;;;;;2.38;1.33;;;28.20;60.80;;;;;;4155007;28;20120;-44
2023/02/01 12:38:33;;;;;;;4.13;1.55;;;28.20;60.80;;;;;;4153839;28;20612;-45
2023/02/01 12:40:58;;;;;;;7.80;1.80;;;28.20;60.90;;;;;;4151626;28;20048;-43
2023/02/01 12:44:06;;;;;;;5.25;1.60;;;28.10;61.30;;;;;;4150585;28;20040;-43
2023/02/01 12:46:45;;;;;;;7.57;1.55;;;28.10;61.90;;;;;;4153517;28;20412;-47
2023/02/01 12:49:25;;;;;;;2.83;1.58;;;28.00;62.20;;;;;;4150783;28;20443;-46
2023/02/01 12:51:50;;;;;;;2.30;1.23;;;28.00;62.40;;;;;;4154118;28;20042;-47
2023/02/01 12:54:12;;;;;;;3.55;1.70;;;27.90;60.90;;;;;;4152706;28;20390;-44
2023/02/01 12:56:55;;;;;;;2.88;1.27;;;27.70;58.10;;;;;;4156237;28;20045;-43
2023/02/01 12:59:42;;;;;;;2.22;1.13;;;27.50;57.20;;;;;;4148530;28;20096;-42
2023/02/01 13:02:25;;;;;;;2.13;1.20;;;27.30;55.30;;;;;;4156974;28;20348;-44
2023/02/01 13:05:17;;;;;;;3.08;1.27;;;27.10;54.90;;;;;;4155430;28;20049;-41
2023/02/01 13:07:44;;;;;;;3.15;1.63;;;26.80;54.50;;;;;;4152060;28;20448;-42
2023/02/01 13:10:21;;;;;;;9.75;1.90;;;26.60;53.80;;;;;;4155900;28;20046;-42
2023/02/01 13:12:52;;;;;;;5.68;1.60;;;26.40;54.00;;;;;;4155592;28;20380;-43
2023/02/01 13:15:38;;;;;;;6.35;1.83;;;26.30;55.80;;;;;;4152606;28;20041;-43
2023/02/01 13:18:05;;;;;;;8.50;1.50;;;26.30;56.30;;;;;;4153607;28;20061;-43
2023/02/01 13:20:59;;;;;;;5.50;1.45;;;26.40;57.10;;;;;;4152277;28;20604;-44